This is the latest recevied weather packets stored in our database for station/object HA6IFZ-10. If no packets are shown the sender has not sent any weather packets the latest 10 day(s).
| Time | Temp. | Humidity | Pressure | Rain* | Wind** | Luminosity | Snow |
|---|---|---|---|---|---|---|---|
| 1777270219 | 13.33° C | 25% | 1033 hPa | - | - | - | - |
| 1777262217 | 4.44° C | 54% | 1032.7 hPa | - | - | - | - |
| 1777247806 | 4.44° C | 59% | 1032.3 hPa | - | - | - | - |
| 1777241658 | 5.56° C | 50% | 1031.8 hPa | - | - | - | - |
| 1777240758 | 6.11° C | 50% | 1031.8 hPa | - | - | - | - |
| 1777228784 | 10.56° C | 35% | 1029.3 hPa | - | - | - | - |
| 1777220891 | 15.56° C | 24% | 1027 hPa | - | - | - | - |
| 1777219990 | 16.11° C | 24% | 1026.8 hPa | - | - | - | - |
| 1777216352 | 17.22° C | 22% | 1026.6 hPa | - | - | - | - |
| 1777214917 | 17.78° C | 22% | 1026.5 hPa | - | - | - | - |
| 1777214016 | 17.78° C | 22% | 1026.3 hPa | - | - | - | - |
| 1777213116 | 17.78° C | 21% | 1026.2 hPa | - | - | - | - |
| 1777211791 | 18.33° C | 21% | 1026 hPa | - | - | - | - |
| 1777210891 | 16.67° C | 21% | 1026 hPa | - | - | - | - |
| 1777209991 | 17.78° C | 20% | 1025.9 hPa | - | - | - | - |
| 1777209091 | 17.78° C | 20% | 1026 hPa | - | - | - | - |
| 1777208191 | 17.78° C | 19% | 1025.9 hPa | - | - | - | - |
| 1777207291 | 18.89° C | 20% | 1025.8 hPa | - | - | - | - |
| 1777206390 | 17.22° C | 20% | 1025.8 hPa | - | - | - | - |
| 1777205356 | 16.67° C | 23% | 1025.8 hPa | - | - | - | - |
| 1777204456 | 18.33° C | 21% | 1025.5 hPa | - | - | - | - |
| 1777203556 | 17.78° C | 21% | 1025.6 hPa | - | - | - | - |
| 1777202656 | 17.22° C | 22% | 1025.7 hPa | - | - | - | - |
| 1777201740 | 16.11° C | 21% | 1025.4 hPa | - | - | - | - |
| 1777199629 | 17.78° C | 23% | 1025.2 hPa | - | - | - | - |
* Rain since midnight (hover to see other rain measurements)
** Current wind speed in m/s (hover to see current wind gust speed)